Time;durP1;ratioP1;P1;durP2;ratioP2;P2;SDS_P1;SDS_P2;PMS_P1;PMS_P2;Temp;Humidity;BMP_temperature;BMP_pressure;BME280_temperature;BME280_humidity;BME280_pressure;Samples;Min_cycle;Max_cycle;Signal;HPM_P1;HPM_P2
2023/09/08 00:01:57;;;;;;;2.53;1.40;;;20.00;81.60;;;;;;6153161;23;20024;-87
2023/09/08 00:04:39;;;;;;;;;;;20.00;81.70;;;;;;6168216;23;20032;-86
2023/09/08 00:07:12;;;;;;;1.95;1.20;;;19.90;81.70;;;;;;6212448;23;20330;-86
2023/09/08 00:14:44;;;;;;;3.50;1.65;;;20.00;81.80;;;;;;6219085;23;20059;-86
2023/09/08 00:17:48;;;;;;;1.85;1.30;;;19.90;81.90;;;;;;6189252;23;20024;-87
2023/09/08 00:20:31;;;;;;;3.53;1.65;;;19.90;82.00;;;;;;6189227;23;20043;-87
2023/09/08 00:23:52;;;;;;;3.55;1.80;;;19.80;82.10;;;;;;6189357;23;20067;-86
2023/09/08 00:26:24;;;;;;;;;;;19.80;82.20;;;;;;6214801;23;20082;-86
2023/09/08 00:28:53;;;;;;;3.47;1.60;;;19.70;82.40;;;;;;6214377;23;19922;-86
2023/09/08 00:31:28;;;;;;;2.97;1.60;;;19.60;82.60;;;;;;6187126;23;20051;-85
2023/09/08 00:33:55;;;;;;;2.65;1.30;;;19.70;82.70;;;;;;6163714;23;20016;-85
2023/09/08 00:36:28;;;;;;;3.25;1.75;;;19.60;82.90;;;;;;6213561;23;20239;-86
2023/09/08 00:39:01;;;;;;;3.80;1.55;;;19.60;83.00;;;;;;6217749;22;20050;-86
2023/09/08 00:41:33;;;;;;;2.63;1.90;;;19.50;83.10;;;;;;6250391;22;20020;-87
2023/09/08 00:44:17;;;;;;;2.80;1.70;;;19.40;83.30;;;;;;6227326;22;20023;-86
2023/09/08 00:47:04;;;;;;;3.42;2.20;;;19.40;83.40;;;;;;6253418;22;20039;-86
2023/09/08 00:49:46;;;;;;;;;;;19.40;83.70;;;;;;6227437;22;20016;-86
2023/09/08 00:52:31;;;;;;;2.75;1.40;;;19.30;83.70;;;;;;6228284;22;19915;-88
2023/09/08 00:55:12;;;;;;;2.60;1.40;;;19.20;83.90;;;;;;6277247;22;20090;-88
2023/09/08 00:57:42;;;;;;;3.08;1.40;;;19.20;84.00;;;;;;6225088;22;20015;-85
2023/09/08 01:00:12;;;;;;;3.65;1.77;;;19.10;84.10;;;;;;6250746;22;20016;-86
2023/09/08 01:03:00;;;;;;;2.72;1.50;;;19.10;84.20;;;;;;6250601;22;20479;-86
2023/09/08 01:05:31;;;;;;;3.23;1.87;;;19.10;84.40;;;;;;6226305;22;20023;-86
2023/09/08 01:08:02;;;;;;;3.03;1.85;;;19.10;84.50;;;;;;6225554;22;20738;-86
2023/09/08 01:10:31;;;;;;;3.67;2.10;;;19.00;84.60;;;;;;6275634;22;20326;-86
2023/09/08 01:13:00;;;;;;;3.13;1.98;;;19.00;84.70;;;;;;6201152;22;20087;-86
2023/09/08 01:15:27;;;;;;;2.35;1.55;;;19.00;84.80;;;;;;6229112;22;20441;-86
2023/09/08 01:18:03;;;;;;;3.03;1.90;;;18.90;84.90;;;;;;6226539;22;20020;-86
2023/09/08 01:21:17;;;;;;;2.85;1.67;;;18.90;85.00;;;;;;6205442;22;20019;-86
2023/09/08 01:24:53;;;;;;;2.47;1.60;;;18.90;85.10;;;;;;6216710;23;20043;-85
2023/09/08 01:27:37;;;;;;;3.13;1.92;;;18.80;85.10;;;;;;6222960;22;20123;-85
2023/09/08 01:30:27;;;;;;;2.78;1.73;;;18.80;85.40;;;;;;6225967;22;20019;-85
2023/09/08 01:32:59;;;;;;;4.07;1.90;;;18.70;85.40;;;;;;6235255;23;20020;-84
2023/09/08 01:35:26;;;;;;;3.10;1.80;;;18.70;85.60;;;;;;6222024;22;20024;-85
2023/09/08 01:38:19;;;;;;;6.97;2.45;;;18.70;85.70;;;;;;6199650;22;20099;-84
2023/09/08 01:41:06;;;;;;;3.10;1.88;;;18.70;85.70;;;;;;6276056;22;20027;-85
2023/09/08 01:43:51;;;;;;;3.20;2.20;;;18.60;85.90;;;;;;6226093;22;20028;-85
2023/09/08 01:46:32;;;;;;;2.17;1.38;;;18.60;85.90;;;;;;6200679;22;20023;-85
2023/09/08 01:49:21;;;;;;;2.33;1.33;;;18.50;86.00;;;;;;6224005;22;20019;-85
2023/09/08 01:52:08;;;;;;;;;;;;;;;;;;;;;
2023/09/08 01:54:49;;;;;;;3.40;2.17;;;18.50;86.10;;;;;;6249518;22;20090;-86
2023/09/08 01:57:27;;;;;;;3.38;2.10;;;18.50;86.30;;;;;;6225532;22;20043;-86
2023/09/08 02:00:08;;;;;;;3.58;2.10;;;18.50;86.40;;;;;;6225422;22;20070;-85
2023/09/08 02:02:46;;;;;;;3.95;2.03;;;18.40;86.50;;;;;;6224289;22;20035;-84
2023/09/08 02:05:22;;;;;;;3.90;1.80;;;18.40;86.60;;;;;;6247853;22;20023;-84
2023/09/08 02:07:56;;;;;;;3.22;2.20;;;18.30;86.70;;;;;;6250694;22;20073;-84
2023/09/08 02:10:34;;;;;;;3.05;2.00;;;18.30;86.80;;;;;;6249169;22;20058;-84
2023/09/08 02:13:20;;;;;;;3.17;1.90;;;18.30;86.90;;;;;;6251220;22;20095;-84
2023/09/08 02:16:22;;;;;;;2.70;1.60;;;18.30;87.00;;;;;;6261694;22;20030;-85
2023/09/08 02:19:23;;;;;;;3.20;1.88;;;18.20;87.00;;;;;;6279355;22;20084;-84
2023/09/08 02:22:31;;;;;;;3.70;2.28;;;18.20;87.10;;;;;;6283043;22;20019;-84
2023/09/08 02:25:08;;;;;;;4.45;2.28;;;18.10;87.20;;;;;;6281930;22;20029;-84
2023/09/08 02:28:23;;;;;;;2.45;1.60;;;18.10;87.30;;;;;;6305335;22;20045;-84
2023/09/08 02:31:03;;;;;;;3.17;1.73;;;18.10;87.30;;;;;;6304568;22;20027;-84
2023/09/08 02:34:04;;;;;;;4.70;2.35;;;18.00;87.40;;;;;;6305855;22;20043;-84
2023/09/08 02:36:55;;;;;;;3.42;2.15;;;18.00;87.50;;;;;;6272925;22;20065;-84
2023/09/08 02:40:09;;;;;;;4.03;2.03;;;18.00;87.60;;;;;;6224014;22;20022;-85
2023/09/08 02:42:46;;;;;;;2.53;1.33;;;18.00;87.60;;;;;;6248381;22;20085;-85
2023/09/08 02:45:23;;;;;;;4.20;2.63;;;17.90;87.70;;;;;;6223726;22;20069;-85
2023/09/08 02:48:25;;;;;;;4.68;2.30;;;17.90;87.90;;;;;;6203078;22;20039;-85
2023/09/08 02:50:56;;;;;;;5.00;2.08;;;17.90;87.90;;;;;;6247667;22;20020;-85
2023/09/08 02:53:37;;;;;;;4.35;1.92;;;17.90;88.00;;;;;;6247518;22;20020;-85
2023/09/08 02:56:16;;;;;;;5.22;2.65;;;17.80;88.00;;;;;;6249110;22;20446;-85
2023/09/08 02:58:45;;;;;;;3.38;2.00;;;17.90;88.20;;;;;;6247351;22;20118;-85
2023/09/08 03:01:24;;;;;;;2.40;1.50;;;17.80;88.20;;;;;;6283205;22;20076;-85
2023/09/08 03:04:19;;;;;;;4.53;2.35;;;17.80;88.30;;;;;;6309434;22;20015;-85
2023/09/08 03:07:37;;;;;;;;;;;17.80;88.40;;;;;;6260502;22;20023;-84
2023/09/08 03:10:25;;;;;;;3.40;2.13;;;17.70;88.30;;;;;;6280657;22;19918;-85
2023/09/08 03:12:53;;;;;;;3.67;2.13;;;17.70;88.40;;;;;;6278845;22;20030;-85
2023/09/08 03:15:37;;;;;;;2.72;1.70;;;17.70;88.50;;;;;;6299660;22;20028;-85
2023/09/08 03:18:07;;;;;;;4.40;2.90;;;17.70;88.50;;;;;;6251915;22;20015;-84
2023/09/08 03:20:52;;;;;;;3.92;2.13;;;17.70;88.60;;;;;;6253867;22;20026;-86
2023/09/08 03:26:50;;;;;;;3.20;2.05;;;17.60;88.70;;;;;;6264977;22;20026;-85
2023/09/08 03:29:31;;;;;;;3.90;2.22;;;17.60;88.80;;;;;;6234533;22;20015;-86
2023/09/08 03:32:08;;;;;;;4.60;2.38;;;17.60;88.80;;;;;;6254404;22;20039;-85
2023/09/08 03:34:43;;;;;;;2.97;1.92;;;17.60;88.80;;;;;;6255538;22;20033;-85
2023/09/08 03:37:36;;;;;;;4.80;2.50;;;17.60;89.00;;;;;;6237629;22;20399;-86
2023/09/08 03:40:25;;;;;;;3.50;2.20;;;17.50;89.00;;;;;;6259838;22;20026;-85
2023/09/08 03:42:57;;;;;;;4.07;2.13;;;17.50;89.00;;;;;;6254455;22;20114;-87
2023/09/08 03:45:53;;;;;;;;;;;;;;;;;;;;;
2023/09/08 03:48:43;;;;;;;5.38;2.30;;;17.50;89.20;;;;;;6279687;22;20039;-86
2023/09/08 03:51:11;;;;;;;3.65;2.30;;;17.50;89.20;;;;;;6254932;22;20015;-87
2023/09/08 03:54:24;;;;;;;4.30;2.70;;;17.40;89.20;;;;;;6183445;22;20102;-87
2023/09/08 03:57:07;;;;;;;2.75;1.58;;;17.50;89.30;;;;;;6257547;22;20015;-86
2023/09/08 04:00:20;;;;;;;2.45;1.75;;;17.50;89.40;;;;;;6271056;22;20077;-88
2023/09/08 04:03:11;;;;;;;3.80;2.40;;;17.40;89.50;;;;;;6265667;22;20090;-87
2023/09/08 04:06:30;;;;;;;4.30;2.67;;;17.40;89.60;;;;;;6252929;22;20019;-87
2023/09/08 04:09:51;;;;;;;3.85;2.20;;;17.40;89.60;;;;;;6273392;22;20019;-87
2023/09/08 04:13:01;;;;;;;4.35;2.28;;;17.40;89.70;;;;;;6289545;22;20536;-87
2023/09/08 04:15:43;;;;;;;3.80;1.95;;;17.30;89.70;;;;;;6255305;22;20118;-87
2023/09/08 04:18:57;;;;;;;3.78;2.53;;;17.30;89.70;;;;;;6254428;22;20102;-87
2023/09/08 04:23:15;;;;;;;3.05;2.00;;;17.30;89.70;;;;;;6184405;23;20087;-87
2023/09/08 04:26:17;;;;;;;3.67;2.33;;;17.30;89.70;;;;;;6158792;23;20021;-87
2023/09/08 04:29:22;;;;;;;5.47;2.30;;;17.30;89.80;;;;;;6159296;23;20486;-86
2023/09/08 04:32:34;;;;;;;4.07;2.63;;;17.20;89.70;;;;;;6159588;23;20042;-86
2023/09/08 04:35:36;;;;;;;4.18;2.50;;;17.20;89.90;;;;;;6139023;23;20076;-87
2023/09/08 04:46:51;;;;;;;;;;;;;;;;;;;;;
2023/09/08 04:49:22;;;;;;;3.50;1.98;;;17.20;90.00;;;;;;6281007;22;20069;-86
2023/09/08 04:52:36;;;;;;;3.63;2.47;;;17.20;90.00;;;;;;6281165;22;20015;-86
2023/09/08 04:55:06;;;;;;;5.28;2.50;;;17.20;90.00;;;;;;6255973;22;20022;-86
2023/09/08 04:58:27;;;;;;;4.70;2.67;;;17.20;90.00;;;;;;6274481;22;20393;-86
2023/09/08 05:01:32;;;;;;;3.90;2.58;;;17.30;90.00;;;;;;6285562;22;20076;-87
2023/09/08 05:09:26;;;;;;;4.05;2.25;;;17.30;90.00;;;;;;6236323;23;20032;-87
2023/09/08 05:30:35;;;;;;;6.13;3.28;;;17.40;89.80;;;;;;6118051;23;20071;-87
2023/09/08 05:33:34;;;;;;;5.55;2.53;;;17.40;89.80;;;;;;6099394;23;20021;-86
2023/09/08 05:36:18;;;;;;;4.15;2.22;;;17.40;89.80;;;;;;6099915;23;20022;-86
2023/09/08 05:44:36;;;;;;;3.78;2.45;;;17.50;89.70;;;;;;6123650;23;20010;-88
2023/09/08 05:47:35;;;;;;;;;;;17.60;89.50;;;;;;6100078;23;20077;-88
2023/09/08 05:50:29;;;;;;;4.88;2.17;;;17.60;89.40;;;;;;6123308;23;20025;-86
2023/09/08 05:53:20;;;;;;;3.38;2.22;;;17.70;89.30;;;;;;6115679;22;20094;-88
2023/09/08 05:56:11;;;;;;;4.03;2.50;;;17.70;89.20;;;;;;6254987;22;20408;-87
2023/09/08 05:59:01;;;;;;;3.70;1.85;;;17.80;89.10;;;;;;6226722;22;20089;-87
2023/09/08 06:06:41;;;;;;;4.97;2.50;;;18.00;88.70;;;;;;6264337;22;20003;-87
2023/09/08 06:11:05;;;;;;;3.25;2.17;;;18.20;88.50;;;;;;6120427;23;20101;-87
2023/09/08 06:23:09;;;;;;;;;;;;;;;;;;;;;
2023/09/08 06:26:45;;;;;;;3.95;2.13;;;18.80;87.40;;;;;;5981063;24;20572;-87
2023/09/08 06:29:32;;;;;;;3.22;1.85;;;18.90;87.00;;;;;;5978809;23;20577;-87
2023/09/08 06:32:20;;;;;;;4.13;2.58;;;19.00;86.90;;;;;;5997713;23;20014;-87
2023/09/08 06:34:59;;;;;;;4.35;2.60;;;19.10;86.80;;;;;;6027011;23;20125;-86
2023/09/08 06:37:42;;;;;;;4.13;2.95;;;19.20;86.70;;;;;;6062530;23;20452;-86
2023/09/08 06:40:26;;;;;;;4.63;3.30;;;19.30;86.50;;;;;;6102318;23;20030;-86
2023/09/08 06:43:23;;;;;;;3.70;2.33;;;19.50;86.40;;;;;;6084365;23;20021;-85
2023/09/08 06:46:30;;;;;;;5.75;2.28;;;19.50;86.10;;;;;;6108164;23;20021;-86
2023/09/08 06:49:22;;;;;;;4.15;2.40;;;19.60;86.00;;;;;;5996132;23;20023;-86
2023/09/08 06:52:08;;;;;;;5.53;3.03;;;19.70;85.80;;;;;;5989454;23;20643;-87
2023/09/08 06:54:39;;;;;;;4.18;2.30;;;19.80;85.70;;;;;;6013055;23;20023;-86
2023/09/08 06:57:06;;;;;;;3.45;2.50;;;19.90;85.50;;;;;;6032540;23;20071;-84
2023/09/08 06:59:35;;;;;;;4.25;2.38;;;20.00;85.40;;;;;;6040877;23;20074;-84
2023/09/08 07:02:02;;;;;;;4.60;2.90;;;20.10;85.20;;;;;;6017442;23;20023;-84
2023/09/08 07:04:31;;;;;;;4.65;3.40;;;20.20;85.10;;;;;;6041091;23;20039;-87
2023/09/08 07:07:06;;;;;;;5.15;2.70;;;20.30;84.90;;;;;;6017895;23;20027;-85
2023/09/08 07:09:37;;;;;;;4.80;2.83;;;20.30;84.80;;;;;;6042035;23;20027;-89
2023/09/08 07:12:08;;;;;;;5.25;3.35;;;20.40;84.70;;;;;;6018706;23;20058;-85
2023/09/08 07:14:36;;;;;;;4.88;3.40;;;20.50;84.50;;;;;;6017587;23;20468;-88
2023/09/08 07:17:03;;;;;;;4.25;2.72;;;20.60;84.40;;;;;;6017962;23;20023;-86
2023/09/08 07:19:31;;;;;;;6.10;3.80;;;20.60;84.30;;;;;;6062644;23;20036;-86
2023/09/08 07:21:59;;;;;;;4.18;2.70;;;20.70;84.10;;;;;;6158591;23;20027;-87
2023/09/08 07:24:26;;;;;;;5.30;2.75;;;20.80;84.00;;;;;;6133382;23;20448;-85
2023/09/08 07:26:56;;;;;;;4.78;3.25;;;20.90;83.90;;;;;;6133384;23;20025;-89
2023/09/08 07:29:24;;;;;;;4.80;3.03;;;20.90;83.70;;;;;;6133991;23;20112;-87
2023/09/08 07:32:00;;;;;;;4.70;3.05;;;21.00;83.70;;;;;;6159653;23;20017;-88
2023/09/08 07:34:30;;;;;;;4.90;3.33;;;21.00;83.50;;;;;;6161029;23;20063;-87
2023/09/08 07:36:58;;;;;;;6.47;3.45;;;21.10;83.40;;;;;;6135804;23;20013;-88
2023/09/08 07:39:25;;;;;;;6.65;3.60;;;21.20;83.30;;;;;;6162285;23;20025;-91
2023/09/08 07:41:59;;;;;;;4.50;2.92;;;21.30;83.20;;;;;;6141091;23;20025;-90
2023/09/08 07:44:28;;;;;;;4.90;3.00;;;21.30;83.00;;;;;;6136929;23;20071;-86
2023/09/08 07:47:06;;;;;;;4.45;3.08;;;21.40;83.00;;;;;;6159886;23;20064;-87
2023/09/08 07:49:34;;;;;;;5.38;3.10;;;21.50;82.80;;;;;;6135066;23;20063;-86
2023/09/08 07:52:06;;;;;;;4.97;3.17;;;21.50;82.70;;;;;;6160477;23;20044;-87
2023/09/08 07:54:33;;;;;;;5.20;3.70;;;21.60;82.60;;;;;;6136005;23;20021;-88
2023/09/08 07:57:00;;;;;;;4.97;3.30;;;21.70;82.50;;;;;;6161077;23;20021;-88
2023/09/08 07:59:27;;;;;;;5.13;3.03;;;21.70;82.30;;;;;;6135580;23;20039;-87
2023/09/08 08:01:56;;;;;;;3.70;2.95;;;21.80;82.20;;;;;;6159490;23;20112;-86
2023/09/08 08:04:23;;;;;;;4.50;2.80;;;21.80;82.10;;;;;;6135104;23;20056;-86
2023/09/08 08:06:51;;;;;;;4.35;2.60;;;21.90;81.90;;;;;;6159273;23;20376;-86
2023/09/08 08:09:18;;;;;;;4.22;2.65;;;22.00;81.80;;;;;;6135149;23;20017;-88
2023/09/08 08:11:56;;;;;;;5.05;2.90;;;22.10;81.70;;;;;;6136096;23;20043;-89
2023/09/08 08:14:31;;;;;;;4.18;2.42;;;22.20;81.50;;;;;;6138485;23;20486;-86
2023/09/08 08:16:58;;;;;;;6.05;2.83;;;22.30;81.50;;;;;;6134501;23;20347;-86
2023/09/08 08:19:26;;;;;;;4.60;2.63;;;22.30;81.30;;;;;;6159060;23;20415;-86
2023/09/08 08:21:53;;;;;;;4.88;3.63;;;22.40;81.30;;;;;;6159752;23;20028;-91
2023/09/08 08:24:23;;;;;;;4.70;3.10;;;22.50;81.20;;;;;;6159618;23;20024;-85
2023/09/08 08:26:56;;;;;;;4.50;3.30;;;22.50;81.00;;;;;;6135371;23;20032;-87
2023/09/08 08:29:23;;;;;;;5.07;2.97;;;22.60;80.90;;;;;;6110834;23;20021;-86
2023/09/08 08:31:50;;;;;;;4.63;2.55;;;22.70;80.80;;;;;;6134576;23;20025;-86
2023/09/08 08:34:26;;;;;;;4.05;2.60;;;22.70;80.70;;;;;;6110339;23;20013;-90
2023/09/08 08:37:00;;;;;;;4.45;2.47;;;22.80;80.50;;;;;;6161126;23;20048;-90
2023/09/08 08:39:31;;;;;;;4.97;2.80;;;22.90;80.50;;;;;;6152721;22;20024;-89
2023/09/08 08:41:58;;;;;;;4.53;2.80;;;22.90;80.30;;;;;;6256484;22;20019;-90
2023/09/08 08:44:28;;;;;;;4.88;2.72;;;23.00;80.20;;;;;;6281218;22;20072;-91
2023/09/08 08:46:56;;;;;;;5.05;2.97;;;23.10;80.10;;;;;;6282224;22;20026;-89
2023/09/08 08:49:26;;;;;;;4.47;3.30;;;23.10;80.00;;;;;;6256299;22;20023;-86
2023/09/08 08:51:54;;;;;;;4.07;2.60;;;23.20;79.90;;;;;;6231785;22;20108;-88
2023/09/08 08:54:21;;;;;;;3.53;2.22;;;23.30;79.90;;;;;;6256234;22;20042;-88
2023/09/08 08:56:49;;;;;;;3.75;2.20;;;23.30;79.70;;;;;;6256889;22;20026;-88
2023/09/08 08:59:18;;;;;;;7.50;2.88;;;23.40;79.60;;;;;;6257226;22;20023;-89
2023/09/08 09:01:46;;;;;;;4.80;2.88;;;23.40;79.50;;;;;;6282685;22;20353;-92
2023/09/08 09:04:17;;;;;;;4.32;2.45;;;23.50;79.40;;;;;;6282329;22;20027;-89
2023/09/08 09:06:44;;;;;;;4.45;2.97;;;23.50;79.30;;;;;;6281978;22;20043;-92
2023/09/08 09:09:14;;;;;;;4.70;2.90;;;23.60;79.20;;;;;;6256926;22;20019;-92
2023/09/08 09:11:43;;;;;;;4.28;2.70;;;23.60;79.00;;;;;;6256916;22;20061;-91
2023/09/08 09:14:11;;;;;;;3.83;2.78;;;23.70;78.90;;;;;;6282219;22;20106;-89
2023/09/08 09:16:45;;;;;;;4.28;2.70;;;23.80;78.90;;;;;;6256248;22;20015;-91
2023/09/08 09:19:27;;;;;;;4.28;2.72;;;23.90;78.70;;;;;;6281573;22;20019;-89
2023/09/08 09:21:55;;;;;;;3.90;2.60;;;23.90;78.50;;;;;;6255766;22;20020;-89
2023/09/08 09:24:43;;;;;;;4.60;3.45;;;24.00;78.50;;;;;;6281946;22;20020;-90
2023/09/08 09:27:12;;;;;;;4.35;2.92;;;24.10;78.20;;;;;;6282606;22;20015;-93
2023/09/08 09:29:46;;;;;;;4.00;2.58;;;24.10;78.20;;;;;;6257796;22;20034;-91
2023/09/08 09:32:25;;;;;;;3.67;2.28;;;24.20;78.10;;;;;;6257095;22;20358;-87
2023/09/08 09:35:13;;;;;;;4.50;2.40;;;24.30;77.90;;;;;;6259883;22;20022;-88
2023/09/08 09:37:52;;;;;;;4.07;2.75;;;24.40;77.90;;;;;;6281287;22;20094;-85
2023/09/08 09:40:27;;;;;;;4.70;2.50;;;24.40;77.80;;;;;;6257417;22;20019;-90
2023/09/08 09:42:58;;;;;;;4.03;2.72;;;24.50;77.60;;;;;;6256888;22;20026;-92
2023/09/08 09:45:31;;;;;;;4.20;2.47;;;24.60;77.60;;;;;;6281398;22;20016;-91
2023/09/08 09:48:13;;;;;;;4.63;3.08;;;24.60;77.40;;;;;;6256851;22;20451;-90
2023/09/08 09:50:57;;;;;;;4.03;2.83;;;24.70;77.30;;;;;;6285813;22;20090;-93
2023/09/08 09:53:25;;;;;;;3.38;2.38;;;24.80;77.20;;;;;;6281048;22;20051;-90
2023/09/08 09:55:53;;;;;;;4.78;2.95;;;24.90;77.00;;;;;;6255565;22;20015;-89
2023/09/08 09:58:21;;;;;;;3.75;2.55;;;24.90;76.90;;;;;;6256213;22;20022;-87
2023/09/08 10:00:54;;;;;;;4.38;3.10;;;25.00;76.70;;;;;;6255067;22;20023;-89
2023/09/08 10:03:23;;;;;;;3.83;2.63;;;25.20;76.60;;;;;;6254861;22;20078;-90
2023/09/08 10:05:52;;;;;;;3.67;2.92;;;25.20;76.50;;;;;;6255333;22;20437;-90
2023/09/08 10:08:20;;;;;;;5.82;3.17;;;25.30;76.20;;;;;;6255734;22;20045;-90
2023/09/08 10:10:50;;;;;;;4.63;2.90;;;25.60;75.70;;;;;;6255968;22;20102;-88
2023/09/08 10:13:45;;;;;;;5.05;3.47;;;25.90;75.00;;;;;;6256423;22;20464;-91
2023/09/08 10:16:16;;;;;;;4.53;3.13;;;26.30;74.00;;;;;;6252777;22;20429;-91
2023/09/08 10:18:49;;;;;;;4.00;2.97;;;26.60;73.60;;;;;;6250400;22;20020;-90
2023/09/08 10:21:18;;;;;;;3.70;2.65;;;26.90;72.80;;;;;;6225389;22;20396;-89
2023/09/08 10:23:55;;;;;;;3.47;2.47;;;27.10;72.20;;;;;;6225610;22;20046;-91
2023/09/08 10:26:28;;;;;;;4.43;2.38;;;27.40;71.50;;;;;;6225753;22;20066;-91
2023/09/08 10:28:58;;;;;;;4.25;2.72;;;27.70;71.00;;;;;;6224957;22;20028;-90
2023/09/08 10:31:28;;;;;;;4.40;2.78;;;27.80;70.50;;;;;;6225172;22;20019;-87
2023/09/08 10:33:57;;;;;;;3.97;2.58;;;28.00;70.20;;;;;;6225096;22;20024;-89
2023/09/08 10:36:25;;;;;;;3.72;2.65;;;28.00;70.00;;;;;;6224913;22;20020;-88
2023/09/08 10:38:54;;;;;;;3.65;2.83;;;28.10;69.90;;;;;;6224444;22;20460;-85
2023/09/08 10:41:26;;;;;;;3.17;2.13;;;28.20;69.90;;;;;;6274318;22;20095;-87
2023/09/08 10:44:00;;;;;;;2.92;2.10;;;28.00;69.80;;;;;;6223719;22;20442;-86
2023/09/08 10:46:28;;;;;;;3.38;2.03;;;27.60;70.80;;;;;;6223748;22;20019;-86
2023/09/08 10:49:10;;;;;;;2.90;1.85;;;27.50;71.40;;;;;;6249281;22;20012;-86
2023/09/08 10:51:39;;;;;;;3.17;1.98;;;27.50;71.40;;;;;;6223606;22;20066;-86
2023/09/08 10:54:10;;;;;;;3.20;2.22;;;27.30;71.90;;;;;;6248782;22;20015;-86
2023/09/08 10:57:00;;;;;;;2.75;1.58;;;27.00;72.40;;;;;;6224091;22;20027;-87
2023/09/08 10:59:35;;;;;;;2.83;2.03;;;26.90;72.70;;;;;;6223844;22;20043;-86
2023/09/08 11:02:05;;;;;;;2.92;1.50;;;26.90;72.90;;;;;;6223507;22;20020;-86
2023/09/08 11:04:35;;;;;;;3.03;1.55;;;26.90;73.00;;;;;;6199185;22;20102;-87
2023/09/08 11:07:06;;;;;;;2.97;1.75;;;26.80;73.00;;;;;;6224718;22;20129;-87
2023/09/08 11:09:36;;;;;;;4.38;1.83;;;26.70;73.20;;;;;;6224061;22;20024;-88
2023/09/08 11:12:08;;;;;;;3.05;1.60;;;26.70;73.40;;;;;;6224249;22;20015;-87
2023/09/08 11:14:35;;;;;;;3.00;1.60;;;26.70;73.50;;;;;;6224019;22;20026;-87
2023/09/08 11:17:06;;;;;;;2.55;1.95;;;26.70;73.60;;;;;;6224227;22;20022;-89
2023/09/08 11:20:00;;;;;;;2.95;1.65;;;26.70;73.30;;;;;;6219079;22;20023;-88
2023/09/08 11:22:27;;;;;;;3.53;2.45;;;26.80;73.30;;;;;;6246678;22;20396;-89
2023/09/08 11:25:00;;;;;;;3.17;2.08;;;26.80;73.30;;;;;;6224050;22;20042;-88
2023/09/08 11:27:28;;;;;;;4.63;2.05;;;26.90;73.30;;;;;;6224505;22;20019;-88
2023/09/08 11:29:57;;;;;;;3.13;1.92;;;26.80;73.20;;;;;;6199099;22;20015;-86
2023/09/08 11:32:24;;;;;;;3.35;2.28;;;26.90;73.30;;;;;;6223954;22;20024;-87
2023/09/08 11:34:52;;;;;;;3.70;2.60;;;26.90;73.20;;;;;;6224307;22;20098;-87
2023/09/08 11:37:20;;;;;;;4.32;2.97;;;26.90;73.00;;;;;;6223991;22;20039;-88
2023/09/08 11:39:48;;;;;;;3.65;2.13;;;26.90;72.90;;;;;;6224137;22;20405;-87
2023/09/08 11:42:17;;;;;;;5.22;2.85;;;27.00;72.90;;;;;;6199434;22;20082;-86
2023/09/08 11:44:47;;;;;;;4.28;2.15;;;27.00;72.70;;;;;;6224126;22;20442;-89
2023/09/08 11:47:15;;;;;;;3.80;2.40;;;27.10;72.80;;;;;;6223849;22;20030;-86
2023/09/08 11:49:44;;;;;;;4.05;2.63;;;27.10;72.70;;;;;;6224383;22;20030;-88
2023/09/08 11:52:14;;;;;;;3.97;2.22;;;27.10;72.70;;;;;;6274207;22;20324;-90
2023/09/08 11:54:44;;;;;;;3.20;2.47;;;27.10;72.50;;;;;;6224700;22;20026;-91
2023/09/08 11:57:29;;;;;;;4.85;2.70;;;27.20;72.40;;;;;;6217248;22;20454;-90
2023/09/08 12:00:10;;;;;;;3.75;2.10;;;27.30;72.40;;;;;;6227233;22;20086;-92
2023/09/08 12:02:40;;;;;;;2.65;1.65;;;27.20;72.30;;;;;;6224892;22;20012;-88
2023/09/08 12:05:13;;;;;;;3.20;1.95;;;27.30;72.40;;;;;;6224435;22;20016;-87
2023/09/08 12:07:44;;;;;;;2.70;1.77;;;27.30;72.40;;;;;;6224807;22;20015;-88
2023/09/08 12:10:13;;;;;;;2.33;1.88;;;27.30;72.20;;;;;;6224070;22;20011;-89
2023/09/08 12:12:53;;;;;;;2.25;1.67;;;27.30;72.10;;;;;;6248949;22;20433;-87
2023/09/08 12:15:35;;;;;;;2.45;1.58;;;27.40;72.00;;;;;;6249637;22;20020;-89
2023/09/08 12:18:15;;;;;;;2.38;1.52;;;27.30;72.00;;;;;;6258004;22;20107;-89
2023/09/08 12:20:48;;;;;;;2.83;1.95;;;27.30;72.00;;;;;;6283587;22;20027;-92
2023/09/08 12:23:22;;;;;;;3.13;2.05;;;27.40;71.80;;;;;;6307874;22;20023;-90
2023/09/08 12:26:29;;;;;;;3.47;2.25;;;27.40;71.60;;;;;;6283540;22;20019;-95
2023/09/08 12:29:29;;;;;;;2.95;1.95;;;27.50;71.40;;;;;;6308416;22;20118;-92
2023/09/08 12:41:09;;;;;;;3.38;2.22;;;27.50;71.70;;;;;;6329446;22;19997;-89
2023/09/08 12:43:37;;;;;;;3.80;2.42;;;27.50;71.50;;;;;;6313702;22;20051;-91
2023/09/08 12:46:09;;;;;;;4.90;2.92;;;27.50;71.20;;;;;;6314558;22;20015;-89
2023/09/08 12:48:36;;;;;;;3.67;2.70;;;27.60;71.00;;;;;;6339207;22;20018;-92
2023/09/08 12:51:08;;;;;;;3.97;2.72;;;27.60;71.00;;;;;;6314225;22;20015;-90
2023/09/08 12:53:35;;;;;;;4.80;3.30;;;27.60;71.10;;;;;;6338856;22;20027;-90
2023/09/08 12:56:04;;;;;;;5.43;3.40;;;27.70;70.80;;;;;;6313743;22;20014;-92
2023/09/08 12:58:36;;;;;;;3.40;2.70;;;27.80;70.70;;;;;;6313509;22;20014;-90
2023/09/08 13:01:15;;;;;;;3.08;2.65;;;27.90;70.70;;;;;;6340281;22;20022;-88
2023/09/08 13:03:48;;;;;;;3.47;2.22;;;27.90;70.90;;;;;;6312733;22;20444;-88
2023/09/08 13:06:21;;;;;;;2.60;1.70;;;27.80;70.90;;;;;;6339688;22;20354;-95
2023/09/08 13:08:48;;;;;;;2.75;2.13;;;27.90;71.10;;;;;;6313945;22;20353;-92
2023/09/08 13:11:29;;;;;;;2.78;1.52;;;27.80;71.10;;;;;;6316385;22;20046;-91
2023/09/08 13:25:11;;;;;;;2.88;1.77;;;27.80;71.10;;;;;;6325126;22;20030;-92
2023/09/08 13:28:01;;;;;;;;;;;;;;;;;;;;;
2023/09/08 13:31:07;;;;;;;;;;;;;;;;;;;;;
2023/09/08 13:34:36;;;;;;;2.25;1.50;;;27.80;71.20;;;;;;6294936;22;20011;-94
2023/09/08 13:37:17;;;;;;;2.25;1.50;;;27.80;71.40;;;;;;6290442;22;20019;-96
2023/09/08 13:39:51;;;;;;;2.30;1.50;;;27.90;71.20;;;;;;6314894;22;20026;-94
2023/09/08 13:42:40;;;;;;;3.58;1.90;;;27.90;71.20;;;;;;6294542;22;20469;-96
2023/09/08 13:49:34;;;;;;;2.35;1.80;;;28.00;70.80;;;;;;6213619;23;20064;-90
2023/09/08 13:52:04;;;;;;;2.53;1.85;;;28.00;70.00;;;;;;6214274;23;20017;-88
2023/09/08 13:54:38;;;;;;;2.50;1.60;;;28.20;69.90;;;;;;6142997;23;20084;-93
2023/09/08 13:57:06;;;;;;;2.58;1.42;;;28.20;69.80;;;;;;6134600;23;20017;-92
2023/09/08 13:59:41;;;;;;;2.80;1.83;;;28.30;69.80;;;;;;6184628;23;20039;-93
2023/09/08 14:02:09;;;;;;;2.60;1.38;;;28.30;69.80;;;;;;6183098;22;20024;-90
2023/09/08 14:04:57;;;;;;;2.72;1.73;;;28.20;69.70;;;;;;6291221;22;20101;-89
2023/09/08 14:07:29;;;;;;;3.10;2.03;;;28.20;69.80;;;;;;6288153;22;20047;-89
2023/09/08 14:10:01;;;;;;;3.53;2.28;;;28.40;69.60;;;;;;6287538;22;20053;-92
2023/09/08 14:16:12;;;;;;;3.45;2.47;;;28.50;69.00;;;;;;6301786;22;20085;-91
2023/09/08 14:22:58;;;;;;;3.60;2.50;;;28.70;69.40;;;;;;6251932;22;20019;-93
2023/09/08 14:25:35;;;;;;;3.35;2.33;;;28.70;68.40;;;;;;6185011;22;20069;-93
2023/09/08 14:28:03;;;;;;;4.90;3.30;;;28.80;68.30;;;;;;6225491;22;20024;-90
2023/09/08 14:30:35;;;;;;;3.60;2.97;;;28.90;67.40;;;;;;6226450;22;20041;-93
2023/09/08 14:33:07;;;;;;;3.53;2.80;;;28.90;67.30;;;;;;6250895;22;20012;-91
2023/09/08 14:39:40;;;;;;;3.73;2.47;;;28.90;67.40;;;;;;6250490;22;20007;-92
2023/09/08 14:42:15;;;;;;;3.03;2.20;;;28.90;67.90;;;;;;6202984;22;20286;-90
2023/09/08 14:44:42;;;;;;;2.42;2.03;;;28.90;68.10;;;;;;6224771;22;20164;-90
2023/09/08 14:47:12;;;;;;;2.25;1.35;;;28.80;67.90;;;;;;6225971;22;20026;-92
2023/09/08 14:49:42;;;;;;;2.53;1.80;;;28.80;67.90;;;;;;6201949;22;20015;-96
2023/09/08 14:52:21;;;;;;;2.40;1.50;;;28.90;68.00;;;;;;6247797;22;20054;-96
2023/09/08 14:54:55;;;;;;;2.75;1.65;;;28.90;68.00;;;;;;6229217;22;20020;-94
2023/09/08 14:57:23;;;;;;;2.42;1.73;;;28.80;68.00;;;;;;6225413;22;20026;-92
2023/09/08 14:59:55;;;;;;;2.88;1.95;;;28.80;67.90;;;;;;6225816;22;20019;-92
2023/09/08 15:02:22;;;;;;;2.42;1.83;;;28.80;67.60;;;;;;6225496;22;20027;-93
2023/09/08 15:04:49;;;;;;;2.88;2.15;;;28.90;67.60;;;;;;6251020;22;20403;-88
2023/09/08 15:07:24;;;;;;;2.47;2.10;;;28.90;67.30;;;;;;6225889;22;20457;-88
2023/09/08 15:09:52;;;;;;;2.97;2.15;;;29.00;66.90;;;;;;6200207;22;20452;-87
2023/09/08 15:12:22;;;;;;;3.50;2.17;;;29.00;66.80;;;;;;6199169;22;20632;-88
2023/09/08 15:14:49;;;;;;;3.53;2.23;;;29.10;66.80;;;;;;6199369;22;20019;-87
2023/09/08 15:17:17;;;;;;;3.35;2.45;;;29.10;66.80;;;;;;6256195;22;20515;-87
2023/09/08 15:19:45;;;;;;;3.25;2.58;;;29.20;66.50;;;;;;6280650;22;20441;-90
2023/09/08 15:22:14;;;;;;;3.92;2.90;;;29.20;66.30;;;;;;6281251;22;20042;-91
2023/09/08 15:24:45;;;;;;;2.22;1.92;;;29.20;66.30;;;;;;6281713;22;20046;-92
2023/09/08 15:27:19;;;;;;;3.30;2.38;;;29.20;66.50;;;;;;6281284;22;20058;-91
2023/09/08 15:29:48;;;;;;;3.03;2.03;;;29.10;66.60;;;;;;6281734;22;20023;-92
2023/09/08 15:32:23;;;;;;;2.28;1.52;;;29.10;66.80;;;;;;6281334;22;20012;-91
2023/09/08 15:35:14;;;;;;;3.08;1.77;;;29.00;67.00;;;;;;6284357;22;20015;-95